Decoded Metar for KTQE (TEKAMAH in NE, USA) (IATA:TQE) | Meteo·Mobile Aviation Weather
aviador You're here:

KTQE Decoded Metar

TEKAMAH in NE, USA
Report Time2019-01-19 05:54:00
UTC Time2019-01-19 06:44:45
Flight Rules mvfr MVFR
Wind350° at 23 Gusting to 30 kt
W.Decomp.*RWY 33: 22.4 kt HW 5.2 kt RCW
W.Rank350° ranks 5
Current wind is above 350° avg. (10.4)
Visibility6437 m
Phenomena:Mist
Clouds:Overcast 016 Hf
Expected CloudBase > 800 ft AGL from Temp-Dew spread
Ceiling1,600 ft
Temp-11°C (ISA -24)
Dew Point-13°C (85% RH)
AAT-22.5°C
QNH1024 hPa
Density Alt-2,313 ft
Elevation1,024 ft
Report Wrong Elevation
Raw Report
KTQE 190554Z AUTO 35023G30KT 4SM UP BR OVC016 M11/M13 A3024 RMK
AO2 PK WND 35030/0552 UPE16B46SNB02E12B17E46B49E53 SLP254
P0000 60000 I6002 T11111133 11072 21111 410281111 51025 $=

Extra information for KTQE:More info

Metar Taf Metar & Taf Last 4 Metars F.Rules Stats Wind Profile Meteogram Temp Stats Airport Information Weather charts Add Link Nearby VenuesMetar ALERT Operation Metar Decoded Social comments

AIRNAV info for KTQE